sensor_id;sensor_type;location;lat;lon;timestamp;pressure;altitude;pressure_sealevel;temperature;humidity
59407;BME280;45208;32.616;-115.472;2022-09-14T00:01:14;100468.28;;;59.57;6.64
59407;BME280;45208;32.616;-115.472;2022-09-14T00:03:41;100466.44;;;60.72;5.96
59407;BME280;45208;32.616;-115.472;2022-09-14T00:06:09;100468.25;;;62.54;4.54
59407;BME280;45208;32.616;-115.472;2022-09-14T00:08:36;100467.03;;;66.06;2.92
59407;BME280;45208;32.616;-115.472;2022-09-14T00:11:09;100481.50;;;67.84;2.51
59407;BME280;45208;32.616;-115.472;2022-09-14T00:13:37;100486.91;;;68.67;1.17
59407;BME280;45208;32.616;-115.472;2022-09-14T00:16:06;100475.38;;;67.08;2.75
59407;BME280;45208;32.616;-115.472;2022-09-14T00:18:33;100472.28;;;66.55;2.06
59407;BME280;45208;32.616;-115.472;2022-09-14T00:21:00;100473.91;;;66.11;2.97
59407;BME280;45208;32.616;-115.472;2022-09-14T00:23:27;100472.44;;;62.04;3.72
59407;BME280;45208;32.616;-115.472;2022-09-14T00:25:54;100465.31;;;63.26;3.83
59407;BME280;45208;32.616;-115.472;2022-09-14T00:28:20;100468.44;;;61.55;4.31
59407;BME280;45208;32.616;-115.472;2022-09-14T00:30:46;100465.31;;;64.83;3.22
59407;BME280;45208;32.616;-115.472;2022-09-14T00:33:13;100468.38;;;66.19;1.83
59407;BME280;45208;32.616;-115.472;2022-09-14T00:35:39;100480.44;;;68.94;1.19
59407;BME280;45208;32.616;-115.472;2022-09-14T00:38:06;100489.66;;;69.46;0.76
59407;BME280;45208;32.616;-115.472;2022-09-14T00:40:34;100482.44;;;69.99;0.48
59407;BME280;45208;32.616;-115.472;2022-09-14T00:43:01;100475.91;;;68.12;1.19
59407;BME280;45208;32.616;-115.472;2022-09-14T00:45:27;100472.00;;;65.56;2.10
59407;BME280;45208;32.616;-115.472;2022-09-14T00:47:54;100468.53;;;64.20;2.81
59407;BME280;45208;32.616;-115.472;2022-09-14T00:50:21;100459.56;;;61.22;4.68
59407;BME280;45208;32.616;-115.472;2022-09-14T00:52:48;100466.56;;;60.74;4.65
59407;BME280;45208;32.616;-115.472;2022-09-14T00:55:20;100466.81;;;60.16;5.33
59407;BME280;45208;32.616;-115.472;2022-09-14T00:57:48;100464.94;;;60.83;5.45
59407;BME280;45208;32.616;-115.472;2022-09-14T01:00:18;100467.78;;;59.03;5.82
59407;BME280;45208;32.616;-115.472;2022-09-14T01:02:45;100456.66;;;57.05;7.45
59407;BME280;45208;32.616;-115.472;2022-09-14T01:05:12;100466.78;;;56.04;8.08
59407;BME280;45208;32.616;-115.472;2022-09-14T01:13:23;100461.94;;;54.06;8.85
59407;BME280;45208;32.616;-115.472;2022-09-14T01:18:24;100468.81;;;55.08;8.64
59407;BME280;45208;32.616;-115.472;2022-09-14T01:21:14;100464.78;;;54.96;8.89
59407;BME280;45208;32.616;-115.472;2022-09-14T01:23:51;100478.50;;;54.49;8.63
59407;BME280;45208;32.616;-115.472;2022-09-14T01:29:11;100469.38;;;53.86;9.40
59407;BME280;45208;32.616;-115.472;2022-09-14T01:31:37;100472.66;;;54.34;9.92
59407;BME280;45208;32.616;-115.472;2022-09-14T01:34:11;100475.19;;;53.86;9.71
59407;BME280;45208;32.616;-115.472;2022-09-14T01:36:39;100473.28;;;53.89;9.46
59407;BME280;45208;32.616;-115.472;2022-09-14T01:39:09;100471.13;;;53.46;9.75
59407;BME280;45208;32.616;-115.472;2022-09-14T01:41:36;100480.31;;;52.79;10.65
59407;BME280;45208;32.616;-115.472;2022-09-14T01:46:39;100479.94;;;53.04;11.88
59407;BME280;45208;32.616;-115.472;2022-09-14T01:51:53;100479.13;;;52.07;12.32
59407;BME280;45208;32.616;-115.472;2022-09-14T01:54:42;100484.75;;;53.01;11.39
59407;BME280;45208;32.616;-115.472;2022-09-14T01:57:15;100483.53;;;51.87;12.03
59407;BME280;45208;32.616;-115.472;2022-09-14T01:59:44;100483.50;;;52.47;11.89
59407;BME280;45208;32.616;-115.472;2022-09-14T02:04:45;100494.81;;;50.60;14.18
59407;BME280;45208;32.616;-115.472;2022-09-14T02:07:12;100497.44;;;50.26;15.24
59407;BME280;45208;32.616;-115.472;2022-09-14T02:09:39;100494.13;;;50.73;15.05
59407;BME280;45208;32.616;-115.472;2022-09-14T02:12:06;100492.38;;;50.96;14.54
59407;BME280;45208;32.616;-115.472;2022-09-14T02:14:32;100502.38;;;49.94;15.97
59407;BME280;45208;32.616;-115.472;2022-09-14T02:16:59;100507.00;;;50.40;15.84
59407;BME280;45208;32.616;-115.472;2022-09-14T02:19:27;100508.44;;;50.65;15.13
59407;BME280;45208;32.616;-115.472;2022-09-14T02:21:54;100511.66;;;50.43;15.50
59407;BME280;45208;32.616;-115.472;2022-09-14T02:24:20;100521.22;;;51.60;14.77
59407;BME280;45208;32.616;-115.472;2022-09-14T02:26:47;100520.72;;;51.17;14.59
59407;BME280;45208;32.616;-115.472;2022-09-14T02:29:14;100506.97;;;51.36;14.69
59407;BME280;45208;32.616;-115.472;2022-09-14T02:34:20;100535.91;;;51.23;14.87
59407;BME280;45208;32.616;-115.472;2022-09-14T02:39:24;100538.34;;;51.32;14.30
59407;BME280;45208;32.616;-115.472;2022-09-14T02:41:57;100538.72;;;49.65;15.81
59407;BME280;45208;32.616;-115.472;2022-09-14T02:46:57;100534.09;;;51.33;14.12
59407;BME280;45208;32.616;-115.472;2022-09-14T02:49:34;100546.63;;;51.41;13.83
59407;BME280;45208;32.616;-115.472;2022-09-14T02:54:32;100544.38;;;51.21;14.48
59407;BME280;45208;32.616;-115.472;2022-09-14T02:57:01;100549.66;;;51.62;14.47
59407;BME280;45208;32.616;-115.472;2022-09-14T02:59:27;100549.63;;;51.88;14.46
59407;BME280;45208;32.616;-115.472;2022-09-14T03:01:55;100543.84;;;52.15;13.74
59407;BME280;45208;32.616;-115.472;2022-09-14T03:04:23;100548.94;;;52.56;14.28
59407;BME280;45208;32.616;-115.472;2022-09-14T03:06:49;100548.41;;;52.78;13.85
59407;BME280;45208;32.616;-115.472;2022-09-14T03:09:15;100560.03;;;52.78;13.15
59407;BME280;45208;32.616;-115.472;2022-09-14T03:11:41;100557.28;;;52.39;14.05
59407;BME280;45208;32.616;-115.472;2022-09-14T03:14:09;100563.97;;;52.47;12.51
59407;BME280;45208;32.616;-115.472;2022-09-14T03:16:36;100569.94;;;52.62;12.61
59407;BME280;45208;32.616;-115.472;2022-09-14T03:19:02;100569.09;;;52.41;13.02
59407;BME280;45208;32.616;-115.472;2022-09-14T03:21:29;100576.41;;;51.94;13.78
59407;BME280;45208;32.616;-115.472;2022-09-14T03:23:55;100582.19;;;51.68;11.47
59407;BME280;45208;32.616;-115.472;2022-09-14T03:26:23;100579.75;;;50.63;12.03
59407;BME280;45208;32.616;-115.472;2022-09-14T03:28:53;100586.41;;;50.20;12.80
59407;BME280;45208;32.616;-115.472;2022-09-14T03:31:20;100590.59;;;50.94;11.60
59407;BME280;45208;32.616;-115.472;2022-09-14T03:33:46;100588.66;;;51.16;11.35
59407;BME280;45208;32.616;-115.472;2022-09-14T03:36:17;100593.44;;;50.81;11.51
59407;BME280;45208;32.616;-115.472;2022-09-14T03:38:47;100595.97;;;51.35;10.82
59407;BME280;45208;32.616;-115.472;2022-09-14T03:41:14;100591.34;;;51.14;11.16
59407;BME280;45208;32.616;-115.472;2022-09-14T03:43:41;100597.00;;;51.51;11.19
59407;BME280;45208;32.616;-115.472;2022-09-14T03:46:08;100596.34;;;51.58;11.57
59407;BME280;45208;32.616;-115.472;2022-09-14T03:48:35;100600.06;;;50.95;11.42
59407;BME280;45208;32.616;-115.472;2022-09-14T03:51:05;100601.97;;;50.55;11.74
59407;BME280;45208;32.616;-115.472;2022-09-14T03:53:32;100612.56;;;51.35;11.10
59407;BME280;45208;32.616;-115.472;2022-09-14T03:55:59;100604.84;;;51.56;11.69
59407;BME280;45208;32.616;-115.472;2022-09-14T03:58:25;100610.44;;;51.22;11.86
59407;BME280;45208;32.616;-115.472;2022-09-14T04:00:51;100614.91;;;50.72;12.16
59407;BME280;45208;32.616;-115.472;2022-09-14T04:03:18;100623.34;;;50.52;11.57
59407;BME280;45208;32.616;-115.472;2022-09-14T04:05:52;100620.66;;;50.91;11.93
59407;BME280;45208;32.616;-115.472;2022-09-14T04:08:19;100627.41;;;49.45;12.70
59407;BME280;45208;32.616;-115.472;2022-09-14T04:10:46;100622.16;;;50.41;12.17
59407;BME280;45208;32.616;-115.472;2022-09-14T04:13:12;100623.06;;;50.12;12.35
59407;BME280;45208;32.616;-115.472;2022-09-14T04:15:38;100622.69;;;49.72;12.52
59407;BME280;45208;32.616;-115.472;2022-09-14T04:18:05;100621.72;;;48.98;13.26
59407;BME280;45208;32.616;-115.472;2022-09-14T04:20:31;100626.97;;;49.00;13.28
59407;BME280;45208;32.616;-115.472;2022-09-14T04:22:57;100625.16;;;49.33;13.13
59407;BME280;45208;32.616;-115.472;2022-09-14T04:25:23;100631.59;;;49.14;13.26
59407;BME280;45208;32.616;-115.472;2022-09-14T04:27:50;100625.00;;;49.49;13.08
59407;BME280;45208;32.616;-115.472;2022-09-14T04:30:16;100620.63;;;49.91;12.46
59407;BME280;45208;32.616;-115.472;2022-09-14T04:32:42;100628.53;;;49.01;13.46
59407;BME280;45208;32.616;-115.472;2022-09-14T04:35:09;100626.81;;;49.22;12.83
59407;BME280;45208;32.616;-115.472;2022-09-14T04:37:35;100630.50;;;49.17;12.96
59407;BME280;45208;32.616;-115.472;2022-09-14T04:40:01;100636.66;;;49.93;12.89
59407;BME280;45208;32.616;-115.472;2022-09-14T04:42:28;100629.16;;;49.54;13.22
59407;BME280;45208;32.616;-115.472;2022-09-14T04:44:55;100628.44;;;50.21;12.17
59407;BME280;45208;32.616;-115.472;2022-09-14T04:47:22;100643.13;;;50.47;11.79
59407;BME280;45208;32.616;-115.472;2022-09-14T04:49:48;100638.44;;;50.82;12.20
59407;BME280;45208;32.616;-115.472;2022-09-14T04:52:14;100646.56;;;51.02;11.62
59407;BME280;45208;32.616;-115.472;2022-09-14T04:54:40;100650.81;;;51.15;11.60
59407;BME280;45208;32.616;-115.472;2022-09-14T04:57:07;100649.81;;;51.12;11.52
59407;BME280;45208;32.616;-115.472;2022-09-14T04:59:33;100639.03;;;51.13;11.61
59407;BME280;45208;32.616;-115.472;2022-09-14T05:01:59;100648.50;;;50.94;12.60
59407;BME280;45208;32.616;-115.472;2022-09-14T05:04:25;100643.53;;;50.76;11.97
59407;BME280;45208;32.616;-115.472;2022-09-14T05:06:52;100645.56;;;49.70;12.80
59407;BME280;45208;32.616;-115.472;2022-09-14T05:09:18;100647.19;;;49.00;13.72
59407;BME280;45208;32.616;-115.472;2022-09-14T05:11:44;100636.38;;;49.42;13.07
59407;BME280;45208;32.616;-115.472;2022-09-14T05:14:11;100648.84;;;48.84;12.98
59407;BME280;45208;32.616;-115.472;2022-09-14T05:16:38;100650.63;;;49.28;13.37
59407;BME280;45208;32.616;-115.472;2022-09-14T05:19:06;100648.56;;;48.35;13.92
59407;BME280;45208;32.616;-115.472;2022-09-14T05:21:33;100653.06;;;48.20;13.94
59407;BME280;45208;32.616;-115.472;2022-09-14T05:24:01;100650.78;;;48.70;13.49
59407;BME280;45208;32.616;-115.472;2022-09-14T05:26:29;100657.50;;;48.32;13.94
59407;BME280;45208;32.616;-115.472;2022-09-14T05:28:57;100655.41;;;48.21;14.26
59407;BME280;45208;32.616;-115.472;2022-09-14T05:31:24;100663.28;;;48.09;14.15
59407;BME280;45208;32.616;-115.472;2022-09-14T05:33:51;100661.41;;;46.72;15.46
59407;BME280;45208;32.616;-115.472;2022-09-14T05:36:18;100662.56;;;47.36;14.80
59407;BME280;45208;32.616;-115.472;2022-09-14T05:38:44;100651.31;;;47.49;14.53
59407;BME280;45208;32.616;-115.472;2022-09-14T05:41:11;100659.38;;;47.01;15.26
59407;BME280;45208;32.616;-115.472;2022-09-14T05:43:38;100656.47;;;46.78;15.42
59407;BME280;45208;32.616;-115.472;2022-09-14T05:46:06;100656.81;;;47.70;14.34
59407;BME280;45208;32.616;-115.472;2022-09-14T05:48:33;100661.53;;;47.17;14.62
59407;BME280;45208;32.616;-115.472;2022-09-14T05:51:01;100656.06;;;46.43;15.10
59407;BME280;45208;32.616;-115.472;2022-09-14T05:53:27;100663.00;;;46.84;14.70
59407;BME280;45208;32.616;-115.472;2022-09-14T05:56:03;100660.56;;;46.66;14.88
59407;BME280;45208;32.616;-115.472;2022-09-14T05:58:32;100664.22;;;46.61;15.38
59407;BME280;45208;32.616;-115.472;2022-09-14T06:01:00;100653.31;;;48.27;13.91
59407;BME280;45208;32.616;-115.472;2022-09-14T06:03:31;100658.91;;;47.69;13.74
59407;BME280;45208;32.616;-115.472;2022-09-14T06:05:57;100667.81;;;47.21;14.34
59407;BME280;45208;32.616;-115.472;2022-09-14T06:08:23;100668.88;;;46.42;14.71
59407;BME280;45208;32.616;-115.472;2022-09-14T06:10:49;100665.91;;;46.30;15.11
59407;BME280;45208;32.616;-115.472;2022-09-14T06:13:16;100663.91;;;47.41;14.04
59407;BME280;45208;32.616;-115.472;2022-09-14T06:15:42;100667.06;;;46.50;14.81
59407;BME280;45208;32.616;-115.472;2022-09-14T06:18:08;100673.53;;;46.33;15.05
59407;BME280;45208;32.616;-115.472;2022-09-14T06:20:34;100671.75;;;47.35;14.19
59407;BME280;45208;32.616;-115.472;2022-09-14T06:23:00;100665.72;;;47.55;13.90
59407;BME280;45208;32.616;-115.472;2022-09-14T06:25:27;100671.63;;;46.79;14.53
59407;BME280;45208;32.616;-115.472;2022-09-14T06:27:53;100676.09;;;46.85;14.60
59407;BME280;45208;32.616;-115.472;2022-09-14T06:30:19;100667.41;;;46.69;15.01
59407;BME280;45208;32.616;-115.472;2022-09-14T06:32:46;100669.72;;;46.59;15.21
59407;BME280;45208;32.616;-115.472;2022-09-14T06:35:12;100673.25;;;46.96;14.79
59407;BME280;45208;32.616;-115.472;2022-09-14T06:37:38;100675.19;;;46.51;15.31
59407;BME280;45208;32.616;-115.472;2022-09-14T06:40:04;100671.22;;;47.87;14.00
59407;BME280;45208;32.616;-115.472;2022-09-14T06:42:31;100671.47;;;47.27;14.39
59407;BME280;45208;32.616;-115.472;2022-09-14T06:44:57;100659.63;;;48.09;13.18
59407;BME280;45208;32.616;-115.472;2022-09-14T06:47:23;100663.09;;;47.29;14.06
59407;BME280;45208;32.616;-115.472;2022-09-14T06:49:51;100666.00;;;47.68;13.81
59407;BME280;45208;32.616;-115.472;2022-09-14T06:52:18;100672.53;;;46.48;14.28
59407;BME280;45208;32.616;-115.472;2022-09-14T06:54:44;100668.38;;;47.59;13.44
59407;BME280;45208;32.616;-115.472;2022-09-14T06:57:11;100667.84;;;47.66;13.21
59407;BME280;45208;32.616;-115.472;2022-09-14T06:59:37;100673.06;;;47.28;13.90
59407;BME280;45208;32.616;-115.472;2022-09-14T07:02:07;100663.38;;;47.25;13.65
59407;BME280;45208;32.616;-115.472;2022-09-14T07:04:34;100669.31;;;45.92;14.91
59407;BME280;45208;32.616;-115.472;2022-09-14T07:07:01;100665.16;;;46.35;14.00
59407;BME280;45208;32.616;-115.472;2022-09-14T07:09:27;100663.31;;;46.97;13.46
59407;BME280;45208;32.616;-115.472;2022-09-14T07:11:54;100659.44;;;47.79;13.10
59407;BME280;45208;32.616;-115.472;2022-09-14T07:14:20;100656.28;;;47.32;13.64
59407;BME280;45208;32.616;-115.472;2022-09-14T07:16:46;100656.28;;;47.71;12.95
59407;BME280;45208;32.616;-115.472;2022-09-14T07:19:13;100657.63;;;47.59;13.40
59407;BME280;45208;32.616;-115.472;2022-09-14T07:21:39;100652.59;;;47.99;12.96
59407;BME280;45208;32.616;-115.472;2022-09-14T07:24:06;100657.88;;;47.67;13.17
59407;BME280;45208;32.616;-115.472;2022-09-14T07:26:34;100659.03;;;48.38;12.56
59407;BME280;45208;32.616;-115.472;2022-09-14T07:29:07;100660.56;;;48.45;12.72
59407;BME280;45208;32.616;-115.472;2022-09-14T07:31:36;100665.88;;;48.88;12.54
59407;BME280;45208;32.616;-115.472;2022-09-14T07:34:03;100658.50;;;48.92;12.12
59407;BME280;45208;32.616;-115.472;2022-09-14T07:36:30;100655.75;;;49.11;12.24
59407;BME280;45208;32.616;-115.472;2022-09-14T07:38:57;100659.78;;;49.03;12.01
59407;BME280;45208;32.616;-115.472;2022-09-14T07:41:24;100656.97;;;48.86;12.38
59407;BME280;45208;32.616;-115.472;2022-09-14T07:43:51;100656.16;;;48.91;12.32
59407;BME280;45208;32.616;-115.472;2022-09-14T07:46:18;100663.09;;;49.12;12.35
59407;BME280;45208;32.616;-115.472;2022-09-14T07:48:45;100657.81;;;49.16;12.29
59407;BME280;45208;32.616;-115.472;2022-09-14T07:51:12;100654.63;;;49.20;12.43
59407;BME280;45208;32.616;-115.472;2022-09-14T07:53:40;100656.38;;;48.93;13.38
59407;BME280;45208;32.616;-115.472;2022-09-14T07:56:11;100658.81;;;48.83;13.29
59407;BME280;45208;32.616;-115.472;2022-09-14T07:58:38;100659.56;;;48.95;13.30
59407;BME280;45208;32.616;-115.472;2022-09-14T08:01:05;100661.69;;;48.83;13.48
59407;BME280;45208;32.616;-115.472;2022-09-14T08:03:36;100662.44;;;48.37;13.88
59407;BME280;45208;32.616;-115.472;2022-09-14T08:06:04;100662.63;;;48.61;13.34
59407;BME280;45208;32.616;-115.472;2022-09-14T08:08:31;100663.09;;;48.71;14.02
59407;BME280;45208;32.616;-115.472;2022-09-14T08:11:04;100665.09;;;48.87;13.46
59407;BME280;45208;32.616;-115.472;2022-09-14T08:13:32;100671.09;;;48.95;13.28
59407;BME280;45208;32.616;-115.472;2022-09-14T08:15:58;100667.75;;;48.80;12.96
59407;BME280;45208;32.616;-115.472;2022-09-14T08:18:25;100672.97;;;48.87;12.98
59407;BME280;45208;32.616;-115.472;2022-09-14T08:20:52;100669.84;;;48.79;14.39
59407;BME280;45208;32.616;-115.472;2022-09-14T08:23:18;100670.47;;;48.61;13.74
59407;BME280;45208;32.616;-115.472;2022-09-14T08:25:44;100669.75;;;48.43;14.49
59407;BME280;45208;32.616;-115.472;2022-09-14T08:28:10;100681.88;;;48.31;14.53
59407;BME280;45208;32.616;-115.472;2022-09-14T08:30:36;100682.31;;;48.46;14.10
59407;BME280;45208;32.616;-115.472;2022-09-14T08:33:02;100677.88;;;48.51;14.33
59407;BME280;45208;32.616;-115.472;2022-09-14T08:35:28;100673.41;;;48.44;14.33
59407;BME280;45208;32.616;-115.472;2022-09-14T08:37:54;100672.34;;;48.47;14.54
59407;BME280;45208;32.616;-115.472;2022-09-14T08:40:20;100670.84;;;48.35;14.38
59407;BME280;45208;32.616;-115.472;2022-09-14T08:42:46;100682.38;;;48.29;14.30
59407;BME280;45208;32.616;-115.472;2022-09-14T08:45:14;100674.03;;;48.31;13.88
59407;BME280;45208;32.616;-115.472;2022-09-14T08:47:41;100673.47;;;48.33;14.19
59407;BME280;45208;32.616;-115.472;2022-09-14T08:52:38;100671.34;;;48.39;14.06
59407;BME280;45208;32.616;-115.472;2022-09-14T08:57:51;100670.59;;;48.27;14.39
59407;BME280;45208;32.616;-115.472;2022-09-14T09:00:30;100671.91;;;48.21;14.31
59407;BME280;45208;32.616;-115.472;2022-09-14T09:08:17;100674.56;;;48.07;14.43
59407;BME280;45208;32.616;-115.472;2022-09-14T09:10:41;100680.31;;;48.19;14.87
59407;BME280;45208;32.616;-115.472;2022-09-14T09:13:11;100680.03;;;48.22;14.90
59407;BME280;45208;32.616;-115.472;2022-09-14T09:15:43;100677.19;;;48.17;15.08
59407;BME280;45208;32.616;-115.472;2022-09-14T09:18:17;100676.94;;;48.14;14.54
59407;BME280;45208;32.616;-115.472;2022-09-14T09:20:45;100677.47;;;48.07;15.23
59407;BME280;45208;32.616;-115.472;2022-09-14T09:23:15;100681.69;;;48.01;15.14
59407;BME280;45208;32.616;-115.472;2022-09-14T09:28:20;100680.84;;;48.23;15.36
59407;BME280;45208;32.616;-115.472;2022-09-14T09:30:47;100679.56;;;48.07;14.82
59407;BME280;45208;32.616;-115.472;2022-09-14T09:33:18;100687.69;;;48.08;14.74
59407;BME280;45208;32.616;-115.472;2022-09-14T09:36:20;100690.53;;;48.20;14.88
59407;BME280;45208;32.616;-115.472;2022-09-14T09:38:46;100687.66;;;48.20;14.88
59407;BME280;45208;32.616;-115.472;2022-09-14T09:41:23;100686.09;;;48.07;14.61
59407;BME280;45208;32.616;-115.472;2022-09-14T09:44:06;100690.84;;;47.99;15.28
59407;BME280;45208;32.616;-115.472;2022-09-14T09:46:37;100670.38;;;48.08;15.25
59407;BME280;45208;32.616;-115.472;2022-09-14T09:49:13;100680.34;;;48.07;14.99
59407;BME280;45208;32.616;-115.472;2022-09-14T09:51:40;100671.91;;;48.21;14.71
59407;BME280;45208;32.616;-115.472;2022-09-14T09:54:28;100677.22;;;48.05;15.22
59407;BME280;45208;32.616;-115.472;2022-09-14T09:56:55;100676.94;;;48.09;15.04
59407;BME280;45208;32.616;-115.472;2022-09-14T10:01:48;100677.75;;;47.98;15.56
59407;BME280;45208;32.616;-115.472;2022-09-14T10:04:18;100676.19;;;47.92;15.32
59407;BME280;45208;32.616;-115.472;2022-09-14T10:06:46;100684.59;;;47.95;15.52
59407;BME280;45208;32.616;-115.472;2022-09-14T10:09:33;100686.41;;;47.98;15.49
59407;BME280;45208;32.616;-115.472;2022-09-14T10:12:01;100677.19;;;48.17;14.86
59407;BME280;45208;32.616;-115.472;2022-09-14T10:14:29;100679.78;;;48.20;14.90
59407;BME280;45208;32.616;-115.472;2022-09-14T10:17:15;100685.56;;;48.26;15.17
59407;BME280;45208;32.616;-115.472;2022-09-14T10:19:52;100685.03;;;48.22;14.64
59407;BME280;45208;32.616;-115.472;2022-09-14T10:22:26;100682.72;;;48.03;15.52
59407;BME280;45208;32.616;-115.472;2022-09-14T10:27:43;100683.25;;;47.74;15.67
59407;BME280;45208;32.616;-115.472;2022-09-14T10:30:17;100682.22;;;47.82;15.36
59407;BME280;45208;32.616;-115.472;2022-09-14T10:33:26;100686.41;;;47.93;15.56
59407;BME280;45208;32.616;-115.472;2022-09-14T10:43:51;100682.75;;;47.70;15.60
59407;BME280;45208;32.616;-115.472;2022-09-14T10:46:24;100688.25;;;47.79;15.49
59407;BME280;45208;32.616;-115.472;2022-09-14T10:53:55;100676.97;;;47.75;15.70
59407;BME280;45208;32.616;-115.472;2022-09-14T10:56:28;100691.66;;;47.89;15.31
59407;BME280;45208;32.616;-115.472;2022-09-14T11:22:18;100702.94;;;47.59;15.34
59407;BME280;45208;32.616;-115.472;2022-09-14T11:29:45;100704.75;;;47.62;15.14
59407;BME280;45208;32.616;-115.472;2022-09-14T11:34:44;100717.06;;;47.68;15.31
59407;BME280;45208;32.616;-115.472;2022-09-14T11:37:14;100717.06;;;47.79;15.21
59407;BME280;45208;32.616;-115.472;2022-09-14T11:39:46;100711.81;;;47.77;15.42
59407;BME280;45208;32.616;-115.472;2022-09-14T11:42:19;100719.41;;;47.58;15.21
59407;BME280;45208;32.616;-115.472;2022-09-14T11:44:48;100716.78;;;47.54;15.16
59407;BME280;45208;32.616;-115.472;2022-09-14T11:47:16;100718.34;;;47.72;15.33
59407;BME280;45208;32.616;-115.472;2022-09-14T11:52:19;100723.63;;;47.79;14.89
59407;BME280;45208;32.616;-115.472;2022-09-14T11:54:46;100721.78;;;47.88;15.10
59407;BME280;45208;32.616;-115.472;2022-09-14T11:57:15;100717.06;;;47.84;15.21
59407;BME280;45208;32.616;-115.472;2022-09-14T12:17:51;100734.63;;;47.87;15.27
59407;BME280;45208;32.616;-115.472;2022-09-14T12:22:47;100738.00;;;47.74;14.77
59407;BME280;45208;32.616;-115.472;2022-09-14T12:25:19;100743.00;;;47.79;15.26
59407;BME280;45208;32.616;-115.472;2022-09-14T12:27:48;100748.00;;;47.95;14.62
59407;BME280;45208;32.616;-115.472;2022-09-14T12:33:00;100752.97;;;47.95;14.83
59407;BME280;45208;32.616;-115.472;2022-09-14T12:40:45;100766.06;;;47.90;15.32
59407;BME280;45208;32.616;-115.472;2022-09-14T12:46:00;100768.69;;;47.99;14.67
59407;BME280;45208;32.616;-115.472;2022-09-14T12:53:49;100774.94;;;47.70;15.32
59407;BME280;45208;32.616;-115.472;2022-09-14T12:56:23;100779.66;;;47.62;15.28
59407;BME280;45208;32.616;-115.472;2022-09-14T13:04:11;100778.81;;;47.44;15.46
59407;BME280;45208;32.616;-115.472;2022-09-14T13:06:39;100784.03;;;47.35;15.88
59407;BME280;45208;32.616;-115.472;2022-09-14T13:09:11;100794.25;;;47.30;16.17
59407;BME280;45208;32.616;-115.472;2022-09-14T13:11:40;100795.81;;;47.31;16.49
59407;BME280;45208;32.616;-115.472;2022-09-14T13:14:11;100796.06;;;47.33;16.97
59407;BME280;45208;32.616;-115.472;2022-09-14T13:16:41;100797.25;;;47.04;16.58
59407;BME280;45208;32.616;-115.472;2022-09-14T13:21:48;100801.59;;;47.42;15.97
59407;BME280;45208;32.616;-115.472;2022-09-14T13:24:56;100802.66;;;47.45;15.67
59407;BME280;45208;32.616;-115.472;2022-09-14T13:27:04;100805.00;;;47.41;16.13
59407;BME280;45208;32.616;-115.472;2022-09-14T13:29:33;100809.22;;;47.57;16.03
59407;BME280;45208;32.616;-115.472;2022-09-14T13:31:59;100813.09;;;47.37;15.81
59407;BME280;45208;32.616;-115.472;2022-09-14T13:34:26;100812.59;;;47.49;15.78
59407;BME280;45208;32.616;-115.472;2022-09-14T13:36:54;100817.88;;;47.57;15.77
59407;BME280;45208;32.616;-115.472;2022-09-14T13:41:47;100820.53;;;47.77;15.32
59407;BME280;45208;32.616;-115.472;2022-09-14T13:44:14;100819.19;;;47.67;15.81
59407;BME280;45208;32.616;-115.472;2022-09-14T13:46:40;100819.47;;;47.80;15.10
59407;BME280;45208;32.616;-115.472;2022-09-14T13:49:06;100824.97;;;48.11;15.25
59407;BME280;45208;32.616;-115.472;2022-09-14T13:51:33;100826.59;;;48.24;15.27
59407;BME280;45208;32.616;-115.472;2022-09-14T13:57:14;100833.34;;;48.60;14.78
59407;BME280;45208;32.616;-115.472;2022-09-14T14:02:26;100839.38;;;48.67;15.21
59407;BME280;45208;32.616;-115.472;2022-09-14T14:04:52;100850.88;;;48.84;14.77
59407;BME280;45208;32.616;-115.472;2022-09-14T14:07:20;100849.28;;;48.94;15.06
59407;BME280;45208;32.616;-115.472;2022-09-14T14:12:21;100853.31;;;49.38;14.32
59407;BME280;45208;32.616;-115.472;2022-09-14T14:14:55;100858.16;;;49.60;14.57
59407;BME280;45208;32.616;-115.472;2022-09-14T14:19:48;100861.50;;;49.75;14.99
59407;BME280;45208;32.616;-115.472;2022-09-14T14:24:41;100869.28;;;49.45;15.41
59407;BME280;45208;32.616;-115.472;2022-09-14T14:30:11;100873.53;;;49.33;14.95
59407;BME280;45208;32.616;-115.472;2022-09-14T14:32:38;100872.41;;;49.88;14.98
59407;BME280;45208;32.616;-115.472;2022-09-14T14:35:11;100882.63;;;49.95;14.09
59407;BME280;45208;32.616;-115.472;2022-09-14T14:37:39;100877.88;;;50.27;13.97
59407;BME280;45208;32.616;-115.472;2022-09-14T14:40:05;100878.06;;;49.75;14.03
59407;BME280;45208;32.616;-115.472;2022-09-14T14:42:32;100872.22;;;49.80;13.60
59407;BME280;45208;32.616;-115.472;2022-09-14T14:44:58;100872.91;;;49.51;13.99
59407;BME280;45208;32.616;-115.472;2022-09-14T14:47:25;100876.56;;;49.57;13.88
59407;BME280;45208;32.616;-115.472;2022-09-14T14:49:52;100873.34;;;50.07;13.18
59407;BME280;45208;32.616;-115.472;2022-09-14T14:52:19;100880.00;;;49.91;13.53
59407;BME280;45208;32.616;-115.472;2022-09-14T14:54:45;100877.88;;;50.27;14.12
59407;BME280;45208;32.616;-115.472;2022-09-14T14:57:12;100882.41;;;49.46;14.15
59407;BME280;45208;32.616;-115.472;2022-09-14T14:59:38;100882.78;;;50.13;13.79
59407;BME280;45208;32.616;-115.472;2022-09-14T15:02:04;100886.31;;;49.89;13.45
59407;BME280;45208;32.616;-115.472;2022-09-14T15:04:31;100885.00;;;50.56;13.09